Terminal Aerodrome Forecast
Issued by NWS

Home | Current Version | Previous Version | Text Only | Print | Product List | Glossary On
Versions: 1 2 3 4 5 6 7 8 9 10 11 12 13 14
577
FTUS46 KSEW 271123
TAFOLM
TAF
KOLM 271123Z 2712/2812 20008KT P6SM BKN035
     FM272100 23010G16KT P6SM VCSH BKN035
     FM280500 21008KT P6SM OVC030
     FM280900 19006KT P6SM OVC020=

USA.gov is the U.S. government's official web portal to all federal, state and local government web resources and services.